createdAt,value
2022-08-16T00:01:10.337Z,87.86
2022-08-16T00:03:37.599Z,88.32
2022-08-16T00:06:04.661Z,87.92
2022-08-16T00:08:36.603Z,87.99
2022-08-16T00:11:07.805Z,87.65
2022-08-16T00:13:42.576Z,88.26
2022-08-16T00:17:01.374Z,87.08
2022-08-16T00:18:56.282Z,88.40
2022-08-16T00:21:23.183Z,88.46
2022-08-16T00:23:49.857Z,87.19
2022-08-16T00:26:36.230Z,88.15
2022-08-16T00:29:04.494Z,88.17
2022-08-16T00:31:47.245Z,88.69
2022-08-16T00:34:19.783Z,88.79
2022-08-16T00:36:47.328Z,87.92
2022-08-16T00:39:15.350Z,87.76
2022-08-16T00:41:42.777Z,87.91
2022-08-16T00:44:13.660Z,88.51
2022-08-16T00:46:52.712Z,87.06
2022-08-16T00:49:29.400Z,87.18
2022-08-16T00:52:29.631Z,86.88
2022-08-16T00:54:53.264Z,86.42
2022-08-16T00:57:20.289Z,87.36
2022-08-16T00:59:59.169Z,86.98
2022-08-16T01:02:31.482Z,88.01
2022-08-16T01:05:10.590Z,86.90
2022-08-16T01:07:51.337Z,86.90
2022-08-16T01:10:21.071Z,87.70
2022-08-16T01:12:49.259Z,87.30
2022-08-16T01:15:16.465Z,88.08
2022-08-16T01:17:43.810Z,88.04
2022-08-16T01:20:24.114Z,88.37
2022-08-16T01:22:59.933Z,88.84
2022-08-16T01:25:34.599Z,88.50
2022-08-16T01:28:05.155Z,87.39
2022-08-16T01:30:39.671Z,87.91
2022-08-16T01:33:14.106Z,88.14
2022-08-16T01:35:46.339Z,88.14
2022-08-16T01:38:22.392Z,88.09
2022-08-16T01:40:55.933Z,88.79
2022-08-16T01:43:23.852Z,89.01
2022-08-16T01:45:57.640Z,89.51
2022-08-16T01:48:27.437Z,89.41
2022-08-16T01:51:09.240Z,89.15
2022-08-16T01:53:41.326Z,89.67
2022-08-16T01:56:28.954Z,89.98
2022-08-16T01:58:58.001Z,89.89
2022-08-16T02:01:26.299Z,89.41
2022-08-16T02:03:58.407Z,89.44
2022-08-16T02:06:34.371Z,89.20
2022-08-16T02:09:06.020Z,89.78
2022-08-16T02:11:47.883Z,89.10
2022-08-16T02:14:21.659Z,88.83
2022-08-16T02:16:50.899Z,89.57
2022-08-16T02:19:19.929Z,89.82
2022-08-16T02:22:08.360Z,90.32
2022-08-16T02:24:41.104Z,89.15
2022-08-16T02:27:09.855Z,89.39
2022-08-16T02:29:36.599Z,89.50
2022-08-16T02:32:49.748Z,88.87
2022-08-16T02:34:51.995Z,88.89
2022-08-16T02:37:23.946Z,89.41
2022-08-16T02:40:12.147Z,88.63
2022-08-16T02:42:48.036Z,88.92
2022-08-16T02:45:18.607Z,89.12
2022-08-16T02:48:01.430Z,88.85
2022-08-16T02:50:54.634Z,88.35
2022-08-16T02:53:23.566Z,88.99
2022-08-16T02:55:51.895Z,88.47
2022-08-16T02:58:20.037Z,88.26
2022-08-16T03:00:53.113Z,89.15
2022-08-16T03:03:25.026Z,89.00
2022-08-16T03:05:53.043Z,89.02
2022-08-16T03:08:52.565Z,89.12
2022-08-16T03:11:16.849Z,89.33
2022-08-16T03:13:51.449Z,89.81
2022-08-16T03:16:33.009Z,88.83
2022-08-16T03:19:06.298Z,89.25
2022-08-16T03:21:37.495Z,90.01
2022-08-16T03:24:28.810Z,90.38
2022-08-16T03:26:57.976Z,90.46
2022-08-16T03:29:29.850Z,89.55
2022-08-16T03:31:59.572Z,90.16
2022-08-16T03:34:28.664Z,89.89
2022-08-16T03:36:55.413Z,88.88
2022-08-16T03:39:22.315Z,89.30
2022-08-16T03:41:51.272Z,89.69
2022-08-16T03:44:44.709Z,89.88
2022-08-16T03:47:13.357Z,90.53
2022-08-16T03:49:51.191Z,89.54
2022-08-16T03:52:18.299Z,90.01
2022-08-16T03:54:57.759Z,91.15
2022-08-16T03:57:31.859Z,90.61
2022-08-16T04:00:35.067Z,90.48
2022-08-16T04:03:07.298Z,90.24
2022-08-16T04:05:38.839Z,90.41
2022-08-16T04:08:23.184Z,90.31
2022-08-16T04:10:58.158Z,90.47
2022-08-16T04:14:00.624Z,90.35
2022-08-16T04:16:26.575Z,90.52
2022-08-16T04:19:01.235Z,90.74
2022-08-16T04:21:33.677Z,90.56
2022-08-16T04:24:02.159Z,89.87
2022-08-16T04:26:31.754Z,91.48
2022-08-16T04:29:23.305Z,91.68
2022-08-16T04:31:56.859Z,91.07
2022-08-16T04:34:30.643Z,90.68
2022-08-16T04:37:01.320Z,91.36
2022-08-16T04:39:44.824Z,91.35
2022-08-16T04:42:15.848Z,91.37
2022-08-16T04:44:55.047Z,91.83
2022-08-16T04:47:32.987Z,92.08
2022-08-16T04:50:08.767Z,91.73
2022-08-16T04:52:36.146Z,91.76
2022-08-16T04:55:06.234Z,91.66
2022-08-16T04:57:34.617Z,91.90
2022-08-16T05:00:31.899Z,91.03
2022-08-16T05:02:55.696Z,91.63
2022-08-16T05:05:23.663Z,90.96
2022-08-16T05:07:59.661Z,91.04
2022-08-16T05:10:29.973Z,91.82
2022-08-16T05:12:57.471Z,90.42
2022-08-16T05:15:24.540Z,91.34
2022-08-16T05:17:58.897Z,91.37
2022-08-16T05:20:39.226Z,91.39
2022-08-16T05:23:18.863Z,90.04
2022-08-16T05:25:49.027Z,90.33
2022-08-16T05:28:18.688Z,91.86
2022-08-16T05:30:52.489Z,90.43
2022-08-16T05:33:25.916Z,90.48
2022-08-16T05:35:56.392Z,91.56
2022-08-16T05:38:32.585Z,91.43
2022-08-16T05:41:09.264Z,91.63
2022-08-16T05:43:43.702Z,91.93
2022-08-16T05:46:29.580Z,91.16
2022-08-16T05:49:22.179Z,91.24
2022-08-16T05:51:52.309Z,91.44
2022-08-16T05:54:24.805Z,91.38
2022-08-16T05:56:54.591Z,89.95
2022-08-16T05:59:22.662Z,90.06
2022-08-16T06:01:52.004Z,90.81
2022-08-16T06:04:36.022Z,90.50
2022-08-16T06:07:24.356Z,91.05
2022-08-16T06:10:32.389Z,90.70
2022-08-16T06:13:03.891Z,90.91
2022-08-16T06:15:31.348Z,90.58
2022-08-16T06:17:59.469Z,90.18
2022-08-16T06:20:35.414Z,90.54
2022-08-16T06:23:18.129Z,89.64
2022-08-16T06:26:08.641Z,90.21
2022-08-16T06:28:40.149Z,90.48
2022-08-16T06:31:13.956Z,89.79
2022-08-16T06:33:44.658Z,90.29
2022-08-16T06:36:14.810Z,90.31
2022-08-16T06:38:56.193Z,91.03
2022-08-16T06:41:43.825Z,91.06
2022-08-16T06:44:24.457Z,90.57
2022-08-16T06:46:57.875Z,90.92
2022-08-16T06:49:30.126Z,90.60
2022-08-16T06:52:03.081Z,90.16
2022-08-16T06:54:36.026Z,90.84
2022-08-16T06:57:03.203Z,90.99
2022-08-16T06:59:48.505Z,90.84
2022-08-16T07:02:32.294Z,90.32
2022-08-16T07:05:02.152Z,91.06
2022-08-16T07:07:33.825Z,90.87
2022-08-16T07:10:01.549Z,91.52
2022-08-16T07:12:47.046Z,90.61
2022-08-16T07:15:18.714Z,90.96
2022-08-16T07:17:46.655Z,90.47
2022-08-16T07:20:35.317Z,90.34
2022-08-16T07:23:02.554Z,90.34
2022-08-16T07:25:48.247Z,90.17
2022-08-16T07:28:20.449Z,90.84
2022-08-16T07:30:53.268Z,90.38
2022-08-16T07:33:53.396Z,90.25
2022-08-16T07:36:30.842Z,90.49
2022-08-16T07:38:59.222Z,90.24
2022-08-16T07:41:29.542Z,90.97
2022-08-16T07:44:01.758Z,90.72
2022-08-16T07:46:38.993Z,90.55
2022-08-16T07:49:19.094Z,90.72
2022-08-16T07:51:46.892Z,90.41
2022-08-16T07:54:20.846Z,90.75
2022-08-16T07:56:54.012Z,90.24
2022-08-16T07:59:21.414Z,89.59
2022-08-16T08:01:49.117Z,90.26
2022-08-16T08:04:20.309Z,90.35
2022-08-16T08:06:51.093Z,90.35
2022-08-16T08:09:18.780Z,90.93
2022-08-16T08:11:59.842Z,89.86
2022-08-16T08:14:33.324Z,90.60
2022-08-16T08:17:01.860Z,90.20
2022-08-16T08:19:32.312Z,88.85
2022-08-16T08:22:02.357Z,90.58
2022-08-16T08:24:46.913Z,90.26
2022-08-16T08:27:22.601Z,90.20
2022-08-16T08:30:48.812Z,90.07
2022-08-16T08:32:57.999Z,89.61
2022-08-16T08:35:28.466Z,89.56
2022-08-16T08:37:56.723Z,89.83
2022-08-16T08:40:27.895Z,90.64
2022-08-16T08:43:00.613Z,89.69
2022-08-16T08:45:49.064Z,90.48
2022-08-16T08:48:35.135Z,89.94
2022-08-16T08:51:08.784Z,89.63
2022-08-16T08:53:46.027Z,89.82
2022-08-16T08:56:30.087Z,89.98
2022-08-16T08:59:13.192Z,89.07
2022-08-16T09:01:57.263Z,89.58
2022-08-16T09:04:29.979Z,88.66
2022-08-16T09:07:01.262Z,89.31
2022-08-16T09:09:33.581Z,89.90
2022-08-16T09:12:06.559Z,88.73
2022-08-16T09:14:49.483Z,88.10
2022-08-16T09:17:45.345Z,88.00
2022-08-16T09:20:10.600Z,88.23
2022-08-16T09:22:41.682Z,89.27
2022-08-16T09:25:11.385Z,88.45
2022-08-16T09:27:57.422Z,89.52
2022-08-16T09:30:33.752Z,88.88
2022-08-16T09:33:03.637Z,88.38
2022-08-16T09:35:33.810Z,89.50
2022-08-16T09:38:04.838Z,89.17
2022-08-16T09:40:42.919Z,89.80
2022-08-16T09:43:21.029Z,88.79
2022-08-16T09:45:58.078Z,89.35
2022-08-16T09:48:44.346Z,88.51
2022-08-16T09:51:12.143Z,88.32
2022-08-16T09:53:38.944Z,89.02
2022-08-16T09:56:12.137Z,89.24
2022-08-16T09:59:03.233Z,90.02
2022-08-16T10:01:25.887Z,89.90
2022-08-16T10:04:02.728Z,89.12
2022-08-16T10:06:33.927Z,89.21
2022-08-16T10:09:11.265Z,89.40
2022-08-16T10:11:56.631Z,89.76
2022-08-16T10:14:40.750Z,88.78
2022-08-16T10:17:12.801Z,89.86
2022-08-16T10:19:39.813Z,88.42
2022-08-16T10:22:06.618Z,88.93
2022-08-16T10:24:33.508Z,89.42
2022-08-16T10:27:26.738Z,89.59
2022-08-16T10:30:01.401Z,90.30
2022-08-16T10:32:33.796Z,89.15
2022-08-16T10:35:03.393Z,89.00
2022-08-16T10:37:32.716Z,88.10
2022-08-16T10:40:04.784Z,88.74
2022-08-16T10:42:31.512Z,88.58
2022-08-16T10:44:58.189Z,87.15
2022-08-16T10:47:26.373Z,88.35
2022-08-16T10:49:55.880Z,87.81
2022-08-16T10:52:24.374Z,87.93
2022-08-16T10:54:59.227Z,87.18
2022-08-16T10:57:32.843Z,87.84
2022-08-16T11:00:00.014Z,87.05
2022-08-16T11:03:37.515Z,87.08
2022-08-16T11:05:16.380Z,87.40
2022-08-16T11:07:45.574Z,86.57
2022-08-16T11:11:05.431Z,86.75
2022-08-16T11:15:57.597Z,86.96
2022-08-16T11:18:48.542Z,87.33
2022-08-16T11:21:28.473Z,87.39
2022-08-16T11:23:58.054Z,87.41
2022-08-16T11:26:25.534Z,86.74
2022-08-16T11:31:40.179Z,86.25
2022-08-16T11:34:13.245Z,86.61
2022-08-16T11:36:40.152Z,85.56
2022-08-16T11:39:20.782Z,85.00
2022-08-16T11:41:51.525Z,85.84
2022-08-16T11:44:20.366Z,84.66
2022-08-16T11:47:06.579Z,84.85
2022-08-16T11:49:33.275Z,82.93
2022-08-16T11:52:00.018Z,83.77
2022-08-16T11:54:36.077Z,83.77
2022-08-16T11:57:03.883Z,84.90
2022-08-16T11:59:39.573Z,82.38
2022-08-16T12:02:31.270Z,83.53
2022-08-16T12:04:53.921Z,83.25
2022-08-16T12:07:20.622Z,83.58
2022-08-16T12:09:50.373Z,83.53
2022-08-16T12:12:19.868Z,82.66
2022-08-16T12:14:46.577Z,82.34
2022-08-16T12:17:14.505Z,82.07
2022-08-16T12:19:41.526Z,82.78
2022-08-16T12:22:19.291Z,83.80
2022-08-16T12:24:52.354Z,83.21
2022-08-16T12:27:20.485Z,83.27
2022-08-16T12:29:51.488Z,83.69
2022-08-16T12:32:37.466Z,83.17
2022-08-16T12:35:07.539Z,81.57
2022-08-16T12:37:34.375Z,81.78
2022-08-16T12:40:02.433Z,82.21
2022-08-16T12:42:35.379Z,82.07
2022-08-16T12:45:04.784Z,81.95
2022-08-16T12:47:50.238Z,82.89
2022-08-16T12:50:18.561Z,82.73
2022-08-16T12:52:52.379Z,82.80
2022-08-16T12:55:20.761Z,83.51
2022-08-16T12:57:58.632Z,83.47
2022-08-16T13:00:33.712Z,83.45
2022-08-16T13:03:01.744Z,83.67
2022-08-16T13:05:28.521Z,82.49
2022-08-16T13:07:58.350Z,82.29
2022-08-16T13:10:37.668Z,82.99
2022-08-16T13:13:08.711Z,81.86
2022-08-16T13:15:36.219Z,82.66
2022-08-16T13:18:27.004Z,83.35
2022-08-16T13:21:01.137Z,82.63
2022-08-16T13:23:27.826Z,82.51
2022-08-16T13:25:55.472Z,83.95
2022-08-16T13:28:22.614Z,84.71
2022-08-16T13:30:53.670Z,83.38
2022-08-16T13:33:24.812Z,83.41
2022-08-16T13:35:56.388Z,83.51
2022-08-16T13:38:36.809Z,83.50
2022-08-16T13:41:08.843Z,82.19
2022-08-16T13:43:36.213Z,82.37
2022-08-16T13:46:04.725Z,82.58
2022-08-16T13:48:43.003Z,82.61
2022-08-16T13:51:16.873Z,83.90
2022-08-16T13:53:49.588Z,83.86
2022-08-16T13:56:25.151Z,83.16
2022-08-16T13:58:54.374Z,84.11
2022-08-16T14:01:22.105Z,83.58
2022-08-16T14:03:49.183Z,83.39
2022-08-16T14:06:18.629Z,84.06
2022-08-16T14:08:59.017Z,84.93
2022-08-16T14:11:32.695Z,84.77
2022-08-16T14:13:59.450Z,83.86
2022-08-16T14:16:34.108Z,84.75
2022-08-16T14:19:02.106Z,83.59
2022-08-16T14:21:35.210Z,83.73
2022-08-16T14:24:08.135Z,83.04
2022-08-16T14:26:49.541Z,83.83
2022-08-16T14:31:53.673Z,83.93
2022-08-16T14:34:21.354Z,83.82
2022-08-16T14:36:53.060Z,84.09
2022-08-16T14:39:22.109Z,83.59
2022-08-16T14:41:48.989Z,84.29
2022-08-16T14:44:20.113Z,82.67
2022-08-16T14:46:46.946Z,83.15
2022-08-16T14:49:14.498Z,82.62
2022-08-16T14:51:46.156Z,81.67
2022-08-16T14:54:13.183Z,81.65
2022-08-16T14:56:42.954Z,81.82
2022-08-16T14:59:11.010Z,81.23
2022-08-16T15:01:57.855Z,81.29
2022-08-16T15:04:39.774Z,82.00
2022-08-16T15:07:10.161Z,81.89
2022-08-16T15:09:44.430Z,82.04
2022-08-16T15:12:27.150Z,83.13
2022-08-16T15:14:58.271Z,83.56
2022-08-16T15:17:27.631Z,83.27
2022-08-16T15:20:00.967Z,82.23
2022-08-16T15:22:31.994Z,82.26
2022-08-16T15:25:00.387Z,82.29
2022-08-16T15:27:35.571Z,81.97
2022-08-16T15:30:09.156Z,81.35
2022-08-16T15:32:50.782Z,82.55
2022-08-16T15:35:18.233Z,81.57
2022-08-16T15:37:44.963Z,81.30
2022-08-16T15:40:26.666Z,80.65
2022-08-16T15:43:01.511Z,80.61
2022-08-16T15:45:46.580Z,80.62
2022-08-16T15:48:21.174Z,81.20
2022-08-16T15:50:55.374Z,79.70
2022-08-16T15:53:23.401Z,80.75
2022-08-16T15:55:51.873Z,80.73
2022-08-16T15:58:35.599Z,80.33
2022-08-16T16:01:05.714Z,79.88
2022-08-16T16:03:34.581Z,79.27
2022-08-16T16:06:02.761Z,80.07
2022-08-16T16:08:30.124Z,80.85
2022-08-16T16:10:58.755Z,80.07
2022-08-16T16:13:25.992Z,80.73
2022-08-16T16:15:54.104Z,80.87
2022-08-16T16:18:21.463Z,81.87
2022-08-16T16:20:49.742Z,81.71
2022-08-16T16:23:21.105Z,83.28
2022-08-16T16:25:50.635Z,83.22
2022-08-16T16:29:06.255Z,82.79
2022-08-16T16:31:06.875Z,83.81
2022-08-16T16:33:39.917Z,82.41
2022-08-16T16:36:07.418Z,82.78
2022-08-16T16:38:34.896Z,82.31
2022-08-16T16:41:04.782Z,83.30
2022-08-16T16:43:40.462Z,82.79
2022-08-16T16:46:42.204Z,81.82
2022-08-16T16:48:54.846Z,81.65
2022-08-16T16:51:22.160Z,82.23
2022-08-16T16:53:55.811Z,82.29
2022-08-16T16:56:27.462Z,83.64
2022-08-16T16:59:02.231Z,84.88
2022-08-16T17:01:56.921Z,84.34
2022-08-16T17:04:31.228Z,85.06
2022-08-16T17:06:59.100Z,84.53
2022-08-16T17:09:26.051Z,85.65
2022-08-16T17:11:55.290Z,83.93
2022-08-16T17:14:33.180Z,84.38
2022-08-16T17:17:06.693Z,85.64
2022-08-16T17:19:34.076Z,85.37
2022-08-16T17:22:07.007Z,83.45
2022-08-16T17:24:44.906Z,84.42
2022-08-16T17:27:18.105Z,85.44
2022-08-16T17:29:47.633Z,84.08
2022-08-16T17:32:33.858Z,85.51
2022-08-16T17:35:10.866Z,84.10
2022-08-16T17:37:48.690Z,84.27
2022-08-16T17:40:40.262Z,84.12
2022-08-16T17:43:06.814Z,84.86
2022-08-16T17:45:33.547Z,84.32
2022-08-16T17:48:00.227Z,83.84
2022-08-16T17:50:29.063Z,85.86
2022-08-16T17:52:56.492Z,86.12
2022-08-16T17:55:25.005Z,85.18
2022-08-16T17:57:52.361Z,85.34
2022-08-16T18:00:20.619Z,84.99
2022-08-16T18:02:50.216Z,84.72
2022-08-16T18:05:17.336Z,84.52
2022-08-16T18:07:44.457Z,84.89
2022-08-16T18:10:11.214Z,85.44
2022-08-16T18:12:51.296Z,85.96
2022-08-16T18:15:23.523Z,86.14
2022-08-16T18:17:53.133Z,86.19
2022-08-16T18:20:39.667Z,86.01
2022-08-16T18:23:08.670Z,85.26
2022-08-16T18:25:35.899Z,87.13
2022-08-16T18:28:03.154Z,87.40
2022-08-16T18:30:29.814Z,86.31
2022-08-16T18:32:56.521Z,87.13
2022-08-16T18:35:23.292Z,86.91
2022-08-16T18:37:50.282Z,87.00
2022-08-16T18:40:17.827Z,86.83
2022-08-16T18:42:54.927Z,87.78
2022-08-16T18:45:22.008Z,85.99
2022-08-16T18:47:48.741Z,86.28
2022-08-16T18:50:15.742Z,85.90
2022-08-16T18:52:50.090Z,86.26
2022-08-16T18:55:17.029Z,85.90
2022-08-16T18:57:44.833Z,85.56
2022-08-16T19:00:13.148Z,84.86
2022-08-16T19:02:42.997Z,85.69
2022-08-16T19:05:25.961Z,84.98
2022-08-16T19:07:52.675Z,85.97
2022-08-16T19:10:19.397Z,84.74
2022-08-16T19:12:46.092Z,85.68
2022-08-16T19:15:17.329Z,85.64
2022-08-16T19:17:44.627Z,85.37
2022-08-16T19:20:11.988Z,85.24
2022-08-16T19:24:40.437Z,84.84
2022-08-16T19:27:12.862Z,85.58
2022-08-16T19:29:39.615Z,85.28
2022-08-16T19:32:17.374Z,84.97
2022-08-16T19:34:44.346Z,86.00
2022-08-16T19:37:11.187Z,86.18
2022-08-16T19:39:39.011Z,86.22
2022-08-16T19:42:14.887Z,86.09
2022-08-16T19:44:43.764Z,85.49
2022-08-16T19:47:11.296Z,85.80
2022-08-16T19:49:38.357Z,85.95
2022-08-16T19:52:18.342Z,85.57
2022-08-16T19:54:47.285Z,87.85
2022-08-16T19:57:14.974Z,87.40
2022-08-16T19:59:42.142Z,87.98
2022-08-16T20:02:35.529Z,85.42
2022-08-16T20:05:05.254Z,85.41
2022-08-16T20:07:32.677Z,86.47
2022-08-16T20:09:59.480Z,86.86
2022-08-16T20:12:27.179Z,86.62
2022-08-16T20:14:54.065Z,85.96
2022-08-16T20:17:20.815Z,86.74
2022-08-16T20:19:47.681Z,86.24
2022-08-16T20:22:49.918Z,86.03
2022-08-16T20:25:14.499Z,84.72
2022-08-16T20:27:41.982Z,85.68
2022-08-16T20:30:11.027Z,85.46
2022-08-16T20:32:37.938Z,85.74
2022-08-16T20:35:07.748Z,84.57
2022-08-16T20:37:37.306Z,84.90
2022-08-16T20:40:29.670Z,84.97
2022-08-16T20:43:00.828Z,84.56
2022-08-16T20:45:28.523Z,85.01
2022-08-16T20:47:55.628Z,85.42
2022-08-16T20:50:22.620Z,84.16
2022-08-16T20:52:49.859Z,85.49
2022-08-16T20:55:17.250Z,85.88
2022-08-16T20:57:44.100Z,86.28
2022-08-16T21:00:11.962Z,85.59
2022-08-16T21:02:41.298Z,85.08
2022-08-16T21:05:09.401Z,85.38
2022-08-16T21:07:37.358Z,85.16
2022-08-16T21:10:05.511Z,85.96
2022-08-16T21:12:34.548Z,86.28
2022-08-16T21:15:08.660Z,85.29
2022-08-16T21:17:35.440Z,86.00
2022-08-16T21:20:02.269Z,84.67
2022-08-16T21:22:29.102Z,85.54
2022-08-16T21:24:56.677Z,85.09
2022-08-16T21:27:26.079Z,85.89
2022-08-16T21:29:56.010Z,85.28
2022-08-16T21:32:35.701Z,85.11
2022-08-16T21:35:13.333Z,85.57
2022-08-16T21:37:40.805Z,84.71
2022-08-16T21:40:09.075Z,84.74
2022-08-16T21:42:36.956Z,85.75
2022-08-16T21:45:04.130Z,84.85
2022-08-16T21:47:31.953Z,84.02
2022-08-16T21:49:58.907Z,85.50
2022-08-16T21:52:27.062Z,84.41
2022-08-16T21:54:56.312Z,84.75
2022-08-16T21:57:24.145Z,83.84
2022-08-16T21:59:52.825Z,84.07
2022-08-16T22:02:21.804Z,84.88
2022-08-16T22:04:49.350Z,84.53
2022-08-16T22:07:18.138Z,84.13
2022-08-16T22:09:47.131Z,84.69
2022-08-16T22:12:24.154Z,85.11
2022-08-16T22:14:51.272Z,84.61
2022-08-16T22:17:18.317Z,84.79
2022-08-16T22:19:45.892Z,85.60
2022-08-16T22:22:13.065Z,85.37
2022-08-16T22:24:40.117Z,86.25
2022-08-16T22:27:07.113Z,86.71
2022-08-16T22:29:34.038Z,85.42
2022-08-16T22:32:05.240Z,85.76
2022-08-16T22:34:32.366Z,86.37
2022-08-16T22:37:00.202Z,85.74
2022-08-16T22:39:27.329Z,85.67
2022-08-16T22:41:54.335Z,86.29
2022-08-16T22:44:21.310Z,85.53
2022-08-16T22:46:48.104Z,85.95
2022-08-16T22:49:15.001Z,86.39
2022-08-16T22:51:41.967Z,87.09
2022-08-16T22:54:44.140Z,84.75
2022-08-16T22:56:57.432Z,85.53
2022-08-16T22:59:25.285Z,85.74
2022-08-16T23:01:52.753Z,86.21
2022-08-16T23:04:19.602Z,84.62
2022-08-16T23:06:46.460Z,85.81
2022-08-16T23:09:13.220Z,86.01
2022-08-16T23:11:40.133Z,84.75
2022-08-16T23:14:06.872Z,84.39
2022-08-16T23:16:35.051Z,84.66
2022-08-16T23:19:04.561Z,85.06
2022-08-16T23:21:32.167Z,83.67
2022-08-16T23:23:59.068Z,84.89
2022-08-16T23:26:45.208Z,83.29
2022-08-16T23:29:22.259Z,85.19
2022-08-16T23:32:11.114Z,84.57
2022-08-16T23:34:38.468Z,85.19
2022-08-16T23:37:07.343Z,83.92
2022-08-16T23:39:36.406Z,84.98
2022-08-16T23:42:52.214Z,84.22
2022-08-16T23:45:04.243Z,84.64
2022-08-16T23:47:32.158Z,84.12
2022-08-16T23:50:03.401Z,83.72
2022-08-16T23:52:53.247Z,84.81
2022-08-16T23:55:18.238Z,84.89
2022-08-16T23:57:46.182Z,83.31
